sensor_id;sensor_type;location;lat;lon;timestamp;pressure;altitude;pressure_sealevel;temperature;humidity
54042;BME280;41156;51.508;5.406;2022-09-13T00:00:44;100879.25;;;18.18;83.63
54042;BME280;41156;51.508;5.406;2022-09-13T00:03:45;100888.56;;;18.17;83.87
54042;BME280;41156;51.508;5.406;2022-09-13T00:06:45;100877.88;;;18.16;84.20
54042;BME280;41156;51.508;5.406;2022-09-13T00:09:45;100886.09;;;18.16;84.33
54042;BME280;41156;51.508;5.406;2022-09-13T00:12:49;100886.09;;;18.16;84.66
54042;BME280;41156;51.508;5.406;2022-09-13T00:15:49;100886.09;;;18.16;83.71
54042;BME280;41156;51.508;5.406;2022-09-13T00:18:50;100884.44;;;18.15;84.24
54042;BME280;41156;51.508;5.406;2022-09-13T00:21:51;100873.75;;;18.13;84.42
54042;BME280;41156;51.508;5.406;2022-09-13T00:24:51;100868.53;;;18.11;83.92
54042;BME280;41156;51.508;5.406;2022-09-13T00:27:51;100865.81;;;18.11;83.82
54042;BME280;41156;51.508;5.406;2022-09-13T00:30:51;100874.00;;;18.11;83.86
54042;BME280;41156;51.508;5.406;2022-09-13T00:33:52;100870.72;;;18.09;84.34
54042;BME280;41156;51.508;5.406;2022-09-13T00:36:52;100866.91;;;18.10;84.40
54042;BME280;41156;51.508;5.406;2022-09-13T00:39:53;100867.72;;;18.11;84.54
54042;BME280;41156;51.508;5.406;2022-09-13T00:42:53;100864.19;;;18.10;84.29
54042;BME280;41156;51.508;5.406;2022-09-13T00:45:53;100855.97;;;18.10;84.18
54042;BME280;41156;51.508;5.406;2022-09-13T00:49:00;100847.78;;;18.10;84.22
54042;BME280;41156;51.508;5.406;2022-09-13T00:52:07;100846.13;;;18.09;84.27
54042;BME280;41156;51.508;5.406;2022-09-13T00:55:18;100851.59;;;18.09;83.94
54042;BME280;41156;51.508;5.406;2022-09-13T00:58:33;100843.38;;;18.09;84.60
54042;BME280;41156;51.508;5.406;2022-09-13T01:01:44;100843.38;;;18.09;83.97
54042;BME280;41156;51.508;5.406;2022-09-13T01:04:47;100842.31;;;18.10;83.86
54042;BME280;41156;51.508;5.406;2022-09-13T01:07:48;100848.59;;;18.11;83.47
54042;BME280;41156;51.508;5.406;2022-09-13T01:10:52;100842.03;;;18.12;83.56
54042;BME280;41156;51.508;5.406;2022-09-13T01:13:55;100847.50;;;18.12;84.20
54042;BME280;41156;51.508;5.406;2022-09-13T01:16:56;100838.19;;;18.13;83.04
54042;BME280;41156;51.508;5.406;2022-09-13T01:19:57;100833.00;;;18.11;83.48
54042;BME280;41156;51.508;5.406;2022-09-13T01:30:10;100831.66;;;18.14;84.28
54042;BME280;41156;51.508;5.406;2022-09-13T01:34:07;100833.84;;;18.12;83.55
54042;BME280;41156;51.508;5.406;2022-09-13T01:50:10;100830.75;;;18.03;83.87
54042;BME280;41156;51.508;5.406;2022-09-13T01:56:21;100824.47;;;18.03;84.23
54042;BME280;41156;51.508;5.406;2022-09-13T02:02:51;100822.28;;;18.00;84.75
54042;BME280;41156;51.508;5.406;2022-09-13T02:05:59;100817.66;;;18.00;84.68
54042;BME280;41156;51.508;5.406;2022-09-13T02:09:03;100820.38;;;18.00;83.90
54042;BME280;41156;51.508;5.406;2022-09-13T02:12:17;100827.47;;;18.01;85.50
54042;BME280;41156;51.508;5.406;2022-09-13T02:15:25;100821.47;;;17.99;85.44
54042;BME280;41156;51.508;5.406;2022-09-13T02:18:34;100820.66;;;17.99;86.27
54042;BME280;41156;51.508;5.406;2022-09-13T02:21:37;100826.38;;;17.97;84.91
54042;BME280;41156;51.508;5.406;2022-09-13T02:24:41;100827.44;;;17.96;85.30
54042;BME280;41156;51.508;5.406;2022-09-13T02:27:47;100826.38;;;17.97;85.58
54042;BME280;41156;51.508;5.406;2022-09-13T02:30:50;100827.44;;;17.96;85.59
54042;BME280;41156;51.508;5.406;2022-09-13T02:34:26;100831.25;;;17.95;87.97
54042;BME280;41156;51.508;5.406;2022-09-13T02:37:33;100833.19;;;17.94;86.56
54042;BME280;41156;51.508;5.406;2022-09-13T02:40:39;100834.25;;;17.93;86.59
54042;BME280;41156;51.508;5.406;2022-09-13T02:43:46;100841.66;;;17.93;86.79
54042;BME280;41156;51.508;5.406;2022-09-13T02:50:46;100851.50;;;17.94;87.78
54042;BME280;41156;51.508;5.406;2022-09-13T02:57:13;100846.03;;;17.94;85.62
54042;BME280;41156;51.508;5.406;2022-09-13T03:00:17;100849.31;;;17.96;85.96
54042;BME280;41156;51.508;5.406;2022-09-13T03:03:17;100841.38;;;17.94;85.68
54042;BME280;41156;51.508;5.406;2022-09-13T03:06:28;100849.88;;;17.98;85.67
54042;BME280;41156;51.508;5.406;2022-09-13T03:09:29;100842.53;;;17.99;85.44
54042;BME280;41156;51.508;5.406;2022-09-13T03:15:52;100835.13;;;17.99;85.46
54042;BME280;41156;51.508;5.406;2022-09-13T03:19:21;100839.53;;;18.00;85.20
54042;BME280;41156;51.508;5.406;2022-09-13T03:22:47;100837.88;;;17.99;86.21
54042;BME280;41156;51.508;5.406;2022-09-13T03:32:17;100835.66;;;17.96;85.20
54042;BME280;41156;51.508;5.406;2022-09-13T03:35:41;100835.63;;;17.91;86.94
54042;BME280;41156;51.508;5.406;2022-09-13T03:38:59;100829.34;;;17.90;87.17
54042;BME280;41156;51.508;5.406;2022-09-13T03:42:11;100830.69;;;17.88;87.14
54042;BME280;41156;51.508;5.406;2022-09-13T03:45:15;100835.06;;;17.89;86.11
54042;BME280;41156;51.508;5.406;2022-09-13T03:48:18;100828.75;;;17.88;86.32
54042;BME280;41156;51.508;5.406;2022-09-13T03:51:19;100824.94;;;17.89;85.97
54042;BME280;41156;51.508;5.406;2022-09-13T03:54:29;100815.09;;;17.88;86.60
54042;BME280;41156;51.508;5.406;2022-09-13T03:57:31;100819.75;;;17.88;86.02
54042;BME280;41156;51.508;5.406;2022-09-13T04:00:31;100817.00;;;17.88;85.71
54042;BME280;41156;51.508;5.406;2022-09-13T04:03:31;100824.41;;;17.87;86.04
54042;BME280;41156;51.508;5.406;2022-09-13T04:06:32;100825.22;;;17.88;86.53
54042;BME280;41156;51.508;5.406;2022-09-13T04:09:32;100822.97;;;17.85;86.07
54042;BME280;41156;51.508;5.406;2022-09-13T04:12:32;100828.19;;;17.86;86.30
54042;BME280;41156;51.508;5.406;2022-09-13T04:15:33;100839.97;;;17.87;85.96
54042;BME280;41156;51.508;5.406;2022-09-13T04:18:33;100846.50;;;17.86;86.50
54042;BME280;41156;51.508;5.406;2022-09-13T04:21:34;100851.41;;;17.84;86.53
54042;BME280;41156;51.508;5.406;2022-09-13T04:24:35;100847.53;;;17.80;86.47
54042;BME280;41156;51.508;5.406;2022-09-13T04:27:35;100845.34;;;17.76;86.08
54042;BME280;41156;51.508;5.406;2022-09-13T04:30:35;100851.59;;;17.72;86.53
54042;BME280;41156;51.508;5.406;2022-09-13T04:33:36;100856.75;;;17.68;86.48
54042;BME280;41156;51.508;5.406;2022-09-13T04:36:36;100860.28;;;17.64;86.40
54042;BME280;41156;51.508;5.406;2022-09-13T04:39:36;100864.88;;;17.58;86.78
54042;BME280;41156;51.508;5.406;2022-09-13T04:42:37;100863.75;;;17.54;86.39
54042;BME280;41156;51.508;5.406;2022-09-13T04:45:37;100865.59;;;17.48;87.06
54042;BME280;41156;51.508;5.406;2022-09-13T04:48:38;100872.44;;;17.46;86.83
54042;BME280;41156;51.508;5.406;2022-09-13T04:51:38;100864.19;;;17.41;87.37
54042;BME280;41156;51.508;5.406;2022-09-13T04:54:38;100862.53;;;17.39;86.92
54042;BME280;41156;51.508;5.406;2022-09-13T04:57:39;100861.72;;;17.39;87.44
54042;BME280;41156;51.508;5.406;2022-09-13T05:00:40;100869.66;;;17.41;87.19
54042;BME280;41156;51.508;5.406;2022-09-13T05:03:40;100868.00;;;17.39;87.83
54042;BME280;41156;51.508;5.406;2022-09-13T05:06:40;100864.47;;;17.39;87.80
54042;BME280;41156;51.508;5.406;2022-09-13T05:09:40;100856.81;;;17.41;87.84
54042;BME280;41156;51.508;5.406;2022-09-13T05:12:41;100863.09;;;17.42;87.57
54042;BME280;41156;51.508;5.406;2022-09-13T05:15:41;100865.81;;;17.42;88.24
54042;BME280;41156;51.508;5.406;2022-09-13T05:18:41;100853.84;;;17.43;88.04
54042;BME280;41156;51.508;5.406;2022-09-13T05:21:42;100856.31;;;17.44;88.15
54042;BME280;41156;51.508;5.406;2022-09-13T05:24:42;100863.13;;;17.47;88.21
54042;BME280;41156;51.508;5.406;2022-09-13T05:27:44;100861.00;;;17.49;88.69
54042;BME280;41156;51.508;5.406;2022-09-13T05:30:53;100860.16;;;17.48;89.33
54042;BME280;41156;51.508;5.406;2022-09-13T05:33:56;100867.28;;;17.49;88.49
54042;BME280;41156;51.508;5.406;2022-09-13T05:36:57;100864.28;;;17.51;88.34
54042;BME280;41156;51.508;5.406;2022-09-13T05:39:58;100867.00;;;17.51;88.45
54042;BME280;41156;51.508;5.406;2022-09-13T05:42:58;100882.88;;;17.54;88.83
54042;BME280;41156;51.508;5.406;2022-09-13T05:46:05;100879.63;;;17.57;89.42
54042;BME280;41156;51.508;5.406;2022-09-13T05:49:06;100885.66;;;17.59;88.73
54042;BME280;41156;51.508;5.406;2022-09-13T05:52:06;100877.19;;;17.61;88.93
54042;BME280;41156;51.508;5.406;2022-09-13T05:55:07;100881.31;;;17.63;88.82
54042;BME280;41156;51.508;5.406;2022-09-13T05:58:07;100878.31;;;17.65;88.61
54042;BME280;41156;51.508;5.406;2022-09-13T06:01:09;100880.28;;;17.69;88.85
54042;BME280;41156;51.508;5.406;2022-09-13T06:04:10;100881.66;;;17.72;88.99
54042;BME280;41156;51.508;5.406;2022-09-13T06:07:11;100878.38;;;17.75;88.96
54042;BME280;41156;51.508;5.406;2022-09-13T06:10:11;100866.94;;;17.78;88.94
54042;BME280;41156;51.508;5.406;2022-09-13T06:13:12;100872.94;;;17.80;88.72
54042;BME280;41156;51.508;5.406;2022-09-13T06:16:13;100877.91;;;17.83;88.52
54042;BME280;41156;51.508;5.406;2022-09-13T06:19:15;100874.66;;;17.86;88.51
54042;BME280;41156;51.508;5.406;2022-09-13T06:22:15;100876.06;;;17.89;88.78
54042;BME280;41156;51.508;5.406;2022-09-13T06:25:15;100876.63;;;17.91;88.68
54042;BME280;41156;51.508;5.406;2022-09-13T06:28:16;100876.66;;;17.96;89.28
54042;BME280;41156;51.508;5.406;2022-09-13T06:31:18;100872.31;;;18.00;88.66
54042;BME280;41156;51.508;5.406;2022-09-13T06:34:18;100875.66;;;18.07;88.73
54042;BME280;41156;51.508;5.406;2022-09-13T06:37:18;100871.00;;;18.13;88.80
54042;BME280;41156;51.508;5.406;2022-09-13T06:40:19;100869.41;;;18.17;89.27
54042;BME280;41156;51.508;5.406;2022-09-13T06:43:21;100868.59;;;18.22;89.20
54042;BME280;41156;51.508;5.406;2022-09-13T06:46:22;100865.34;;;18.30;88.59
54042;BME280;41156;51.508;5.406;2022-09-13T06:49:23;100868.69;;;18.37;88.87
54042;BME280;41156;51.508;5.406;2022-09-13T06:52:23;100867.34;;;18.45;88.53
54042;BME280;41156;51.508;5.406;2022-09-13T06:55:24;100875.03;;;18.53;88.60
54042;BME280;41156;51.508;5.406;2022-09-13T06:58:24;100877.25;;;18.61;88.25
54042;BME280;41156;51.508;5.406;2022-09-13T07:01:45;100881.13;;;18.71;89.49
54042;BME280;41156;51.508;5.406;2022-09-13T07:04:45;100879.56;;;18.85;88.23
54042;BME280;41156;51.508;5.406;2022-09-13T07:07:46;100882.09;;;19.02;87.79
54042;BME280;41156;51.508;5.406;2022-09-13T07:10:46;100866.78;;;19.42;87.90
54042;BME280;41156;51.508;5.406;2022-09-13T07:13:51;100871.47;;;19.77;85.29
54042;BME280;41156;51.508;5.406;2022-09-13T07:16:52;100873.88;;;20.05;86.17
54042;BME280;41156;51.508;5.406;2022-09-13T07:19:53;100871.38;;;20.24;84.95
54042;BME280;41156;51.508;5.406;2022-09-13T07:22:53;100867.44;;;20.45;84.33
54042;BME280;41156;51.508;5.406;2022-09-13T07:25:55;100870.94;;;20.66;83.95
54042;BME280;41156;51.508;5.406;2022-09-13T07:29:01;100884.03;;;20.85;76.82
54042;BME280;41156;51.508;5.406;2022-09-13T07:32:02;100885.66;;;20.91;82.58
54042;BME280;41156;51.508;5.406;2022-09-13T07:35:02;100879.88;;;20.93;81.75
54042;BME280;41156;51.508;5.406;2022-09-13T07:38:06;100892.75;;;20.97;81.52
54042;BME280;41156;51.508;5.406;2022-09-13T07:41:10;100891.00;;;21.17;80.53
54042;BME280;41156;51.508;5.406;2022-09-13T07:44:11;100887.72;;;21.54;81.04
54042;BME280;41156;51.508;5.406;2022-09-13T07:47:11;100895.78;;;21.75;79.90
54042;BME280;41156;51.508;5.406;2022-09-13T07:50:12;100894.47;;;21.67;79.26
54042;BME280;41156;51.508;5.406;2022-09-13T07:53:12;100902.69;;;21.72;79.05
54042;BME280;41156;51.508;5.406;2022-09-13T07:56:15;100898.88;;;21.97;78.28
54042;BME280;41156;51.508;5.406;2022-09-13T07:59:16;100900.59;;;22.17;78.47
54042;BME280;41156;51.508;5.406;2022-09-13T08:02:16;100902.41;;;22.27;77.09
54042;BME280;41156;51.508;5.406;2022-09-13T08:05:17;100906.34;;;22.21;77.28
54042;BME280;41156;51.508;5.406;2022-09-13T08:08:17;100902.72;;;22.26;76.88
54042;BME280;41156;51.508;5.406;2022-09-13T08:11:21;100911.78;;;22.26;76.07
54042;BME280;41156;51.508;5.406;2022-09-13T08:14:22;100910.31;;;22.39;76.64
54042;BME280;41156;51.508;5.406;2022-09-13T08:17:22;100910.97;;;22.74;75.40
54042;BME280;41156;51.508;5.406;2022-09-13T08:20:22;100914.59;;;22.94;75.52
54042;BME280;41156;51.508;5.406;2022-09-13T08:23:23;100915.31;;;22.99;75.26
54042;BME280;41156;51.508;5.406;2022-09-13T08:26:24;100908.38;;;23.07;74.57
54042;BME280;41156;51.508;5.406;2022-09-13T08:29:24;100919.13;;;23.03;73.58
54042;BME280;41156;51.508;5.406;2022-09-13T08:32:24;100915.03;;;23.01;74.52
54042;BME280;41156;51.508;5.406;2022-09-13T08:35:25;100919.22;;;22.98;74.07
54042;BME280;41156;51.508;5.406;2022-09-13T08:38:26;100921.72;;;22.95;74.67
54042;BME280;41156;51.508;5.406;2022-09-13T08:44:46;100929.31;;;23.03;72.90
54042;BME280;41156;51.508;5.406;2022-09-13T08:47:52;100925.94;;;23.11;74.83
54042;BME280;41156;51.508;5.406;2022-09-13T08:50:56;100926.53;;;23.27;73.69
54042;BME280;41156;51.508;5.406;2022-09-13T08:53:57;100927.66;;;23.45;74.76
54042;BME280;41156;51.508;5.406;2022-09-13T09:00:24;100920.22;;;23.78;71.42
54042;BME280;41156;51.508;5.406;2022-09-13T09:06:48;100901.25;;;23.91;72.99
54042;BME280;41156;51.508;5.406;2022-09-13T09:10:02;100902.41;;;24.04;69.62
54042;BME280;41156;51.508;5.406;2022-09-13T09:13:13;100900.34;;;24.09;71.15
54042;BME280;41156;51.508;5.406;2022-09-13T09:16:32;100890.75;;;24.07;70.06
54042;BME280;41156;51.508;5.406;2022-09-13T09:19:40;100891.88;;;24.06;70.86
54042;BME280;41156;51.508;5.406;2022-09-13T09:22:41;100888.69;;;23.98;71.32
54042;BME280;41156;51.508;5.406;2022-09-13T09:25:43;100898.09;;;24.11;72.12
54042;BME280;41156;51.508;5.406;2022-09-13T09:29:01;100893.31;;;24.31;70.30
54042;BME280;41156;51.508;5.406;2022-09-13T09:39:03;100892.97;;;24.88;69.51
54042;BME280;41156;51.508;5.406;2022-09-13T09:43:08;100896.66;;;24.97;68.46
54042;BME280;41156;51.508;5.406;2022-09-13T09:46:00;100890.22;;;24.88;65.40
54042;BME280;41156;51.508;5.406;2022-09-13T09:49:16;100892.47;;;24.86;67.61
54042;BME280;41156;51.508;5.406;2022-09-13T09:52:48;100891.13;;;24.97;66.45
54042;BME280;41156;51.508;5.406;2022-09-13T09:55:55;100895.41;;;25.03;68.85
54042;BME280;41156;51.508;5.406;2022-09-13T09:58:59;100898.44;;;25.16;68.43
54042;BME280;41156;51.508;5.406;2022-09-13T10:02:00;100891.78;;;25.17;68.17
54042;BME280;41156;51.508;5.406;2022-09-13T10:05:04;100900.09;;;25.17;67.41
54042;BME280;41156;51.508;5.406;2022-09-13T10:08:07;100889.63;;;25.27;67.23
54042;BME280;41156;51.508;5.406;2022-09-13T10:11:23;100892.38;;;25.27;67.07
54042;BME280;41156;51.508;5.406;2022-09-13T10:14:42;100882.03;;;25.19;67.42
54042;BME280;41156;51.508;5.406;2022-09-13T10:18:00;100890.56;;;25.45;66.39
54042;BME280;41156;51.508;5.406;2022-09-13T10:24:15;100885.63;;;25.88;64.93
54042;BME280;41156;51.508;5.406;2022-09-13T10:27:23;100878.47;;;25.87;64.49
54042;BME280;41156;51.508;5.406;2022-09-13T10:30:40;100890.28;;;26.01;64.14
54042;BME280;41156;51.508;5.406;2022-09-13T10:36:56;100878.09;;;26.11;64.63
54042;BME280;41156;51.508;5.406;2022-09-13T10:43:11;100884.06;;;25.95;64.80
54042;BME280;41156;51.508;5.406;2022-09-13T10:46:21;100890.84;;;25.89;64.47
54042;BME280;41156;51.508;5.406;2022-09-13T10:49:55;100891.69;;;25.67;64.03
54042;BME280;41156;51.508;5.406;2022-09-13T10:52:57;100892.16;;;25.60;66.09
54042;BME280;41156;51.508;5.406;2022-09-13T10:55:58;100882.50;;;25.58;65.94
54042;BME280;41156;51.508;5.406;2022-09-13T11:02:43;100867.50;;;25.27;66.34
54042;BME280;41156;51.508;5.406;2022-09-13T11:19:13;100847.03;;;25.91;65.84
54042;BME280;41156;51.508;5.406;2022-09-13T11:39:49;100845.91;;;26.99;61.19
54042;BME280;41156;51.508;5.406;2022-09-13T11:46:16;100845.41;;;27.40;60.33
54042;BME280;41156;51.508;5.406;2022-09-13T11:52:56;100844.25;;;27.32;60.64
54042;BME280;41156;51.508;5.406;2022-09-13T11:56:12;100842.28;;;26.89;61.04
54042;BME280;41156;51.508;5.406;2022-09-13T11:59:33;100841.25;;;26.59;61.83
54042;BME280;41156;51.508;5.406;2022-09-13T12:06:14;100834.66;;;26.86;61.69
54042;BME280;41156;51.508;5.406;2022-09-13T12:09:34;100840.31;;;27.16;60.84
54042;BME280;41156;51.508;5.406;2022-09-13T12:12:36;100844.91;;;27.29;61.13
54042;BME280;41156;51.508;5.406;2022-09-13T12:15:41;100843.44;;;27.06;59.72
54042;BME280;41156;51.508;5.406;2022-09-13T12:18:47;100848.69;;;26.90;60.80
54042;BME280;41156;51.508;5.406;2022-09-13T12:21:52;100836.25;;;26.87;61.09
54042;BME280;41156;51.508;5.406;2022-09-13T12:24:56;100825.03;;;27.10;60.35
54042;BME280;41156;51.508;5.406;2022-09-13T12:28:15;100823.06;;;27.37;57.54
54042;BME280;41156;51.508;5.406;2022-09-13T12:31:19;100825.63;;;27.24;59.46
54042;BME280;41156;51.508;5.406;2022-09-13T12:34:29;100824.69;;;27.11;60.41
54042;BME280;41156;51.508;5.406;2022-09-13T12:48:27;100817.66;;;27.14;60.55
54042;BME280;41156;51.508;5.406;2022-09-13T12:55:33;100831.38;;;26.75;60.88
54042;BME280;41156;51.508;5.406;2022-09-13T12:59:03;100828.69;;;26.53;62.01
54042;BME280;41156;51.508;5.406;2022-09-13T13:08:28;100817.50;;;26.84;61.11
54042;BME280;41156;51.508;5.406;2022-09-13T13:11:40;100811.63;;;26.94;59.21
54042;BME280;41156;51.508;5.406;2022-09-13T13:14:45;100814.72;;;27.10;59.50
54042;BME280;41156;51.508;5.406;2022-09-13T13:17:48;100814.56;;;27.16;59.81
54042;BME280;41156;51.508;5.406;2022-09-13T13:27:37;100808.16;;;27.50;59.01
54042;BME280;41156;51.508;5.406;2022-09-13T13:33:51;100820.22;;;27.54;58.85
54042;BME280;41156;51.508;5.406;2022-09-13T13:37:18;100820.59;;;27.35;60.22
54042;BME280;41156;51.508;5.406;2022-09-13T13:40:24;100817.50;;;27.28;60.60
54042;BME280;41156;51.508;5.406;2022-09-13T13:43:32;100809.50;;;27.26;59.86
54042;BME280;41156;51.508;5.406;2022-09-13T13:46:33;100805.75;;;27.13;60.31
54042;BME280;41156;51.508;5.406;2022-09-13T13:55:48;100808.88;;;26.77;61.58
54042;BME280;41156;51.508;5.406;2022-09-13T13:59:30;100801.03;;;26.70;61.37
54042;BME280;41156;51.508;5.406;2022-09-13T14:02:38;100796.78;;;26.64;61.64
54042;BME280;41156;51.508;5.406;2022-09-13T14:06:05;100803.94;;;26.56;60.81
54042;BME280;41156;51.508;5.406;2022-09-13T14:12:33;100799.31;;;26.26;62.19
54042;BME280;41156;51.508;5.406;2022-09-13T14:22:28;100797.16;;;26.05;63.23
54042;BME280;41156;51.508;5.406;2022-09-13T14:25:28;100796.16;;;26.01;63.19
54042;BME280;41156;51.508;5.406;2022-09-13T14:28:30;100805.94;;;26.07;63.63
54042;BME280;41156;51.508;5.406;2022-09-13T14:31:31;100806.59;;;26.04;63.49
54042;BME280;41156;51.508;5.406;2022-09-13T14:34:37;100805.66;;;25.86;63.77
54042;BME280;41156;51.508;5.406;2022-09-13T14:37:38;100801.88;;;25.73;64.40
54042;BME280;41156;51.508;5.406;2022-09-13T14:40:39;100808.69;;;25.67;64.48
54042;BME280;41156;51.508;5.406;2022-09-13T14:43:40;100796.94;;;25.61;64.63
54042;BME280;41156;51.508;5.406;2022-09-13T14:46:43;100803.16;;;25.67;65.07
54042;BME280;41156;51.508;5.406;2022-09-13T14:49:48;100802.66;;;25.65;65.23
54042;BME280;41156;51.508;5.406;2022-09-13T14:52:53;100803.44;;;25.57;64.93
54042;BME280;41156;51.508;5.406;2022-09-13T14:56:03;100802.41;;;25.53;64.89
54042;BME280;41156;51.508;5.406;2022-09-13T14:59:15;100807.41;;;25.42;64.89
54042;BME280;41156;51.508;5.406;2022-09-13T15:02:23;100806.22;;;25.34;65.93
54042;BME280;41156;51.508;5.406;2022-09-13T15:05:25;100804.69;;;25.28;65.51
54042;BME280;41156;51.508;5.406;2022-09-13T15:11:35;100799.88;;;25.34;65.46
54042;BME280;41156;51.508;5.406;2022-09-13T15:14:36;100808.03;;;25.39;65.31
54042;BME280;41156;51.508;5.406;2022-09-13T15:17:56;100794.06;;;25.44;65.67
54042;BME280;41156;51.508;5.406;2022-09-13T15:20:59;100793.13;;;25.48;65.76
54042;BME280;41156;51.508;5.406;2022-09-13T15:24:00;100791.25;;;25.35;65.63
54042;BME280;41156;51.508;5.406;2022-09-13T15:27:06;100788.38;;;25.40;65.56
54042;BME280;41156;51.508;5.406;2022-09-13T15:30:19;100786.06;;;25.34;64.84
54042;BME280;41156;51.508;5.406;2022-09-13T15:36:27;100782.25;;;25.29;65.39
54042;BME280;41156;51.508;5.406;2022-09-13T15:39:28;100771.38;;;25.10;65.61
54042;BME280;41156;51.508;5.406;2022-09-13T15:42:28;100776.44;;;25.08;65.67
54042;BME280;41156;51.508;5.406;2022-09-13T15:45:28;100767.75;;;25.01;65.92
54042;BME280;41156;51.508;5.406;2022-09-13T15:48:33;100770.19;;;25.03;65.90
54042;BME280;41156;51.508;5.406;2022-09-13T15:51:34;100769.31;;;24.93;66.49
54042;BME280;41156;51.508;5.406;2022-09-13T15:54:40;100768.44;;;24.84;66.03
54042;BME280;41156;51.508;5.406;2022-09-13T15:57:42;100771.94;;;24.76;66.63
54042;BME280;41156;51.508;5.406;2022-09-13T16:00:44;100770.00;;;24.77;66.71
54042;BME280;41156;51.508;5.406;2022-09-13T16:03:44;100765.22;;;24.68;66.93
54042;BME280;41156;51.508;5.406;2022-09-13T16:06:44;100771.19;;;24.62;67.20
54042;BME280;41156;51.508;5.406;2022-09-13T16:09:45;100773.75;;;24.58;67.38
54042;BME280;41156;51.508;5.406;2022-09-13T16:12:47;100763.59;;;24.53;67.39
54042;BME280;41156;51.508;5.406;2022-09-13T16:15:48;100772.81;;;24.49;67.56
54042;BME280;41156;51.508;5.406;2022-09-13T16:18:48;100780.59;;;24.47;67.85
54042;BME280;41156;51.508;5.406;2022-09-13T16:21:48;100783.47;;;24.42;67.68
54042;BME280;41156;51.508;5.406;2022-09-13T16:24:49;100778.88;;;24.37;68.11
54042;BME280;41156;51.508;5.406;2022-09-13T16:27:49;100783.06;;;24.34;68.05
54042;BME280;41156;51.508;5.406;2022-09-13T16:30:52;100783.19;;;24.29;68.18
54042;BME280;41156;51.508;5.406;2022-09-13T16:33:53;100788.13;;;24.18;68.53
54042;BME280;41156;51.508;5.406;2022-09-13T16:36:54;100783.72;;;24.04;69.17
54042;BME280;41156;51.508;5.406;2022-09-13T16:39:56;100777.88;;;23.91;69.07
54042;BME280;41156;51.508;5.406;2022-09-13T16:42:57;100781.19;;;23.93;69.08
54042;BME280;41156;51.508;5.406;2022-09-13T16:45:58;100770.44;;;23.92;69.36
54042;BME280;41156;51.508;5.406;2022-09-13T16:48:58;100775.75;;;23.88;69.38
54042;BME280;41156;51.508;5.406;2022-09-13T16:51:59;100775.91;;;23.78;69.63
54042;BME280;41156;51.508;5.406;2022-09-13T16:55:00;100768.88;;;23.72;69.51
54042;BME280;41156;51.508;5.406;2022-09-13T16:58:01;100763.97;;;23.69;69.71
54042;BME280;41156;51.508;5.406;2022-09-13T17:01:06;100759.47;;;23.59;70.13
54042;BME280;41156;51.508;5.406;2022-09-13T17:04:06;100761.50;;;23.53;70.08
54042;BME280;41156;51.508;5.406;2022-09-13T17:07:07;100760.25;;;23.45;70.00
54042;BME280;41156;51.508;5.406;2022-09-13T17:10:08;100755.66;;;23.41;70.23
54042;BME280;41156;51.508;5.406;2022-09-13T17:13:08;100763.50;;;23.34;70.17
54042;BME280;41156;51.508;5.406;2022-09-13T17:16:32;100774.13;;;23.26;70.96
54042;BME280;41156;51.508;5.406;2022-09-13T17:19:32;100756.81;;;23.21;70.60
54042;BME280;41156;51.508;5.406;2022-09-13T17:22:33;100762.13;;;23.17;70.58
54042;BME280;41156;51.508;5.406;2022-09-13T17:25:33;100755.34;;;23.09;70.93
54042;BME280;41156;51.508;5.406;2022-09-13T17:28:34;100763.38;;;23.06;70.68
54042;BME280;41156;51.508;5.406;2022-09-13T17:31:35;100751.63;;;23.00;71.11
54042;BME280;41156;51.508;5.406;2022-09-13T17:34:35;100760.28;;;22.94;71.42
54042;BME280;41156;51.508;5.406;2022-09-13T17:37:36;100749.13;;;22.85;71.55
54042;BME280;41156;51.508;5.406;2022-09-13T17:40:37;100748.38;;;22.79;72.10
54042;BME280;41156;51.508;5.406;2022-09-13T17:43:38;100744.91;;;22.73;71.98
54042;BME280;41156;51.508;5.406;2022-09-13T17:46:39;100741.97;;;22.65;72.35
54042;BME280;41156;51.508;5.406;2022-09-13T17:49:39;100749.81;;;22.58;72.75
54042;BME280;41156;51.508;5.406;2022-09-13T17:52:40;100757.94;;;22.49;72.81
54042;BME280;41156;51.508;5.406;2022-09-13T17:55:47;100758.88;;;22.39;74.18
54042;BME280;41156;51.508;5.406;2022-09-13T17:58:48;100763.72;;;22.28;73.94
54042;BME280;41156;51.508;5.406;2022-09-13T18:01:51;100762.13;;;22.22;74.32
54042;BME280;41156;51.508;5.406;2022-09-13T18:04:52;100756.97;;;22.15;74.33
54042;BME280;41156;51.508;5.406;2022-09-13T18:07:53;100754.59;;;22.09;74.45
54042;BME280;41156;51.508;5.406;2022-09-13T18:10:53;100756.81;;;22.07;74.58
54042;BME280;41156;51.508;5.406;2022-09-13T18:13:54;100763.78;;;21.99;74.62
54042;BME280;41156;51.508;5.406;2022-09-13T18:16:54;100768.91;;;21.81;76.42
54042;BME280;41156;51.508;5.406;2022-09-13T18:19:57;100760.50;;;21.73;75.20
54042;BME280;41156;51.508;5.406;2022-09-13T18:22:58;100760.84;;;21.66;75.07
54042;BME280;41156;51.508;5.406;2022-09-13T18:26:06;100762.94;;;21.50;77.49
54042;BME280;41156;51.508;5.406;2022-09-13T18:29:12;100756.41;;;21.41;78.48
54042;BME280;41156;51.508;5.406;2022-09-13T18:32:12;100761.66;;;21.37;76.61
54042;BME280;41156;51.508;5.406;2022-09-13T18:35:13;100760.34;;;21.30;76.91
54042;BME280;41156;51.508;5.406;2022-09-13T18:38:13;100768.97;;;21.18;78.27
54042;BME280;41156;51.508;5.406;2022-09-13T18:41:15;100767.94;;;21.14;78.25
54042;BME280;41156;51.508;5.406;2022-09-13T18:44:17;100764.38;;;21.08;81.07
54042;BME280;41156;51.508;5.406;2022-09-13T18:47:17;100757.66;;;20.95;83.43
54042;BME280;41156;51.508;5.406;2022-09-13T18:50:18;100759.91;;;20.83;84.52
54042;BME280;41156;51.508;5.406;2022-09-13T18:53:18;100761.63;;;20.74;85.80